sensor_id;sensor_type;location;lat;lon;timestamp;pressure;altitude;pressure_sealevel;temperature;humidity
79481;BME280;68944;48.262;14.208;2023-11-18T00:00:31;98947.91;;;0.18;100.00
79481;BME280;68944;48.262;14.208;2023-11-18T00:02:58;98947.06;;;0.18;100.00
79481;BME280;68944;48.262;14.208;2023-11-18T00:05:24;98953.63;;;0.12;100.00
79481;BME280;68944;48.262;14.208;2023-11-18T00:07:50;98954.22;;;0.16;100.00
79481;BME280;68944;48.262;14.208;2023-11-18T00:10:15;98960.09;;;0.08;100.00
79481;BME280;68944;48.262;14.208;2023-11-18T00:12:41;98961.16;;;0.05;100.00
79481;BME280;68944;48.262;14.208;2023-11-18T00:15:07;98972.56;;;0.04;100.00
79481;BME280;68944;48.262;14.208;2023-11-18T00:17:39;98974.50;;;0.02;100.00
79481;BME280;68944;48.262;14.208;2023-11-18T00:20:06;98975.69;;;-0.02;100.00
79481;BME280;68944;48.262;14.208;2023-11-18T00:22:35;98979.13;;;-0.02;100.00
79481;BME280;68944;48.262;14.208;2023-11-18T00:25:05;98987.63;;;0.01;100.00
79481;BME280;68944;48.262;14.208;2023-11-18T00:27:31;98988.50;;;0.11;100.00
79481;BME280;68944;48.262;14.208;2023-11-18T00:29:56;98985.88;;;0.11;100.00
79481;BME280;68944;48.262;14.208;2023-11-18T00:32:22;98994.47;;;-0.08;100.00
79481;BME280;68944;48.262;14.208;2023-11-18T00:34:47;98988.13;;;-0.26;100.00
79481;BME280;68944;48.262;14.208;2023-11-18T00:37:13;98993.00;;;-0.42;100.00
79481;BME280;68944;48.262;14.208;2023-11-18T00:39:38;98999.75;;;-0.40;100.00
79481;BME280;68944;48.262;14.208;2023-11-18T00:42:04;98998.75;;;-0.39;100.00
79481;BME280;68944;48.262;14.208;2023-11-18T00:44:31;99005.09;;;-0.31;100.00
79481;BME280;68944;48.262;14.208;2023-11-18T00:46:56;99011.88;;;-0.19;100.00
79481;BME280;68944;48.262;14.208;2023-11-18T00:49:23;99021.59;;;-0.11;100.00
79481;BME280;68944;48.262;14.208;2023-11-18T00:51:48;99032.66;;;-0.29;100.00
79481;BME280;68944;48.262;14.208;2023-11-18T00:54:14;99034.56;;;-0.31;100.00
79481;BME280;68944;48.262;14.208;2023-11-18T00:56:39;99035.41;;;-0.30;100.00
79481;BME280;68944;48.262;14.208;2023-11-18T00:59:05;99041.31;;;-0.28;100.00
79481;BME280;68944;48.262;14.208;2023-11-18T01:01:32;99044.31;;;-0.23;100.00
79481;BME280;68944;48.262;14.208;2023-11-18T01:03:57;99041.91;;;-0.15;100.00
79481;BME280;68944;48.262;14.208;2023-11-18T01:06:27;99045.94;;;-0.32;100.00
79481;BME280;68944;48.262;14.208;2023-11-18T01:08:53;99043.47;;;-0.33;100.00
79481;BME280;68944;48.262;14.208;2023-11-18T01:11:19;99055.03;;;-0.26;100.00
79481;BME280;68944;48.262;14.208;2023-11-18T01:13:49;99058.13;;;-0.32;100.00
79481;BME280;68944;48.262;14.208;2023-11-18T01:16:15;99054.41;;;-0.40;100.00
79481;BME280;68944;48.262;14.208;2023-11-18T01:18:42;99057.81;;;-0.39;100.00
79481;BME280;68944;48.262;14.208;2023-11-18T01:21:08;99064.78;;;-0.18;100.00
79481;BME280;68944;48.262;14.208;2023-11-18T01:23:37;99066.13;;;-0.24;100.00
79481;BME280;68944;48.262;14.208;2023-11-18T01:26:05;99068.97;;;-0.27;100.00
79481;BME280;68944;48.262;14.208;2023-11-18T01:28:31;99068.59;;;-0.22;100.00
79481;BME280;68944;48.262;14.208;2023-11-18T01:31:03;99068.06;;;-0.16;100.00
79481;BME280;68944;48.262;14.208;2023-11-18T01:33:29;99065.69;;;-0.29;100.00
79481;BME280;68944;48.262;14.208;2023-11-18T01:35:55;99071.56;;;-0.37;100.00
79481;BME280;68944;48.262;14.208;2023-11-18T01:38:20;99068.97;;;-0.27;100.00
79481;BME280;68944;48.262;14.208;2023-11-18T01:40:46;99072.16;;;-0.24;100.00
79481;BME280;68944;48.262;14.208;2023-11-18T01:43:12;99075.31;;;-0.20;100.00
79481;BME280;68944;48.262;14.208;2023-11-18T01:45:40;99079.97;;;-0.24;100.00
79481;BME280;68944;48.262;14.208;2023-11-18T01:48:07;99071.50;;;-0.16;100.00
79481;BME280;68944;48.262;14.208;2023-11-18T01:50:36;99064.81;;;-0.08;100.00
79481;BME280;68944;48.262;14.208;2023-11-18T01:53:03;99056.75;;;0.05;100.00
79481;BME280;68944;48.262;14.208;2023-11-18T01:55:29;99052.25;;;0.07;100.00
79481;BME280;68944;48.262;14.208;2023-11-18T01:57:55;99056.25;;;0.11;100.00
79481;BME280;68944;48.262;14.208;2023-11-18T02:00:23;99049.25;;;0.12;100.00
79481;BME280;68944;48.262;14.208;2023-11-18T02:02:49;99051.84;;;0.12;100.00
79481;BME280;68944;48.262;14.208;2023-11-18T02:05:15;99051.31;;;0.18;100.00
79481;BME280;68944;48.262;14.208;2023-11-18T02:07:43;99060.22;;;0.15;100.00
79481;BME280;68944;48.262;14.208;2023-11-18T02:10:09;99066.38;;;0.14;100.00
79481;BME280;68944;48.262;14.208;2023-11-18T02:12:46;99058.44;;;0.16;100.00
79481;BME280;68944;48.262;14.208;2023-11-18T02:15:16;99050.44;;;0.07;100.00
79481;BME280;68944;48.262;14.208;2023-11-18T02:17:45;99055.13;;;0.04;100.00
79481;BME280;68944;48.262;14.208;2023-11-18T02:20:12;99060.88;;;0.07;100.00
79481;BME280;68944;48.262;14.208;2023-11-18T02:22:47;99059.25;;;0.06;100.00
79481;BME280;68944;48.262;14.208;2023-11-18T02:25:17;99059.94;;;0.08;100.00
79481;BME280;68944;48.262;14.208;2023-11-18T02:27:44;99056.25;;;0.11;100.00
79481;BME280;68944;48.262;14.208;2023-11-18T02:30:12;99059.94;;;0.08;100.00
79481;BME280;68944;48.262;14.208;2023-11-18T02:33:02;99062.38;;;0.00;100.00
79481;BME280;68944;48.262;14.208;2023-11-18T02:35:36;99060.47;;;0.02;100.00
79481;BME280;68944;48.262;14.208;2023-11-18T02:38:04;99053.75;;;0.09;100.00
79481;BME280;68944;48.262;14.208;2023-11-18T02:40:41;99048.81;;;0.06;100.00
79481;BME280;68944;48.262;14.208;2023-11-18T02:43:10;99053.50;;;0.13;100.00
79481;BME280;68944;48.262;14.208;2023-11-18T02:45:37;99061.31;;;0.13;100.00
79481;BME280;68944;48.262;14.208;2023-11-18T02:48:06;99069.66;;;0.06;100.00
79481;BME280;68944;48.262;14.208;2023-11-18T02:50:31;99077.47;;;0.06;100.00
79481;BME280;68944;48.262;14.208;2023-11-18T02:52:58;99082.00;;;0.04;100.00
79481;BME280;68944;48.262;14.208;2023-11-18T02:55:23;99085.31;;;0.06;100.00
79481;BME280;68944;48.262;14.208;2023-11-18T02:57:50;99086.94;;;0.07;100.00
79481;BME280;68944;48.262;14.208;2023-11-18T03:00:17;99076.41;;;0.09;100.00
79481;BME280;68944;48.262;14.208;2023-11-18T03:02:50;99075.56;;;0.08;100.00
79481;BME280;68944;48.262;14.208;2023-11-18T03:05:17;99081.22;;;0.14;100.00
79481;BME280;68944;48.262;14.208;2023-11-18T03:07:46;99088.50;;;0.20;100.00
79481;BME280;68944;48.262;14.208;2023-11-18T03:10:16;99088.75;;;0.17;100.00
79481;BME280;68944;48.262;14.208;2023-11-18T03:15:14;99082.38;;;0.51;100.00
79481;BME280;68944;48.262;14.208;2023-11-18T03:17:46;99081.72;;;0.49;100.00
79481;BME280;68944;48.262;14.208;2023-11-18T03:20:14;99080.56;;;0.31;100.00
79481;BME280;68944;48.262;14.208;2023-11-18T03:22:51;99078.91;;;0.30;100.00
79481;BME280;68944;48.262;14.208;2023-11-18T03:25:18;99085.63;;;0.23;100.00
79481;BME280;68944;48.262;14.208;2023-11-18T03:27:47;99082.06;;;0.24;100.00
79481;BME280;68944;48.262;14.208;2023-11-18T03:30:12;99089.84;;;0.14;100.00
79481;BME280;68944;48.262;14.208;2023-11-18T03:32:39;99097.69;;;0.24;100.00
79481;BME280;68944;48.262;14.208;2023-11-18T03:35:08;99094.13;;;0.25;100.00
79481;BME280;68944;48.262;14.208;2023-11-18T03:37:40;99088.06;;;0.15;100.00
79481;BME280;68944;48.262;14.208;2023-11-18T03:40:11;99102.31;;;0.10;100.00
79481;BME280;68944;48.262;14.208;2023-11-18T03:42:37;99100.84;;;0.18;100.00
79481;BME280;68944;48.262;14.208;2023-11-18T03:45:04;99108.66;;;0.18;100.00
79481;BME280;68944;48.262;14.208;2023-11-18T03:47:30;99104.28;;;0.18;100.00
79481;BME280;68944;48.262;14.208;2023-11-18T03:49:56;99101.66;;;0.28;100.00
79481;BME280;68944;48.262;14.208;2023-11-18T03:52:23;99107.88;;;0.27;100.00
79481;BME280;68944;48.262;14.208;2023-11-18T03:54:49;99108.25;;;0.22;100.00
79481;BME280;68944;48.262;14.208;2023-11-18T03:57:15;99120.06;;;0.27;100.00
79481;BME280;68944;48.262;14.208;2023-11-18T03:59:40;99121.59;;;0.29;100.00
79481;BME280;68944;48.262;14.208;2023-11-18T04:02:09;99123.75;;;0.24;100.00
79481;BME280;68944;48.262;14.208;2023-11-18T04:04:37;99121.00;;;0.16;100.00
79481;BME280;68944;48.262;14.208;2023-11-18T04:07:02;99124.53;;;0.15;100.00
79481;BME280;68944;48.262;14.208;2023-11-18T04:09:28;99123.59;;;0.16;100.00
79481;BME280;68944;48.262;14.208;2023-11-18T04:11:55;99130.03;;;0.12;100.00
79481;BME280;68944;48.262;14.208;2023-11-18T04:14:20;99127.53;;;0.10;100.00
79481;BME280;68944;48.262;14.208;2023-11-18T04:16:46;99132.94;;;0.18;100.00
79481;BME280;68944;48.262;14.208;2023-11-18T04:19:12;99137.47;;;0.26;100.00
79481;BME280;68944;48.262;14.208;2023-11-18T04:21:37;99127.06;;;0.26;100.00
79481;BME280;68944;48.262;14.208;2023-11-18T04:24:03;99133.66;;;0.30;100.00
79481;BME280;68944;48.262;14.208;2023-11-18T04:26:31;99115.13;;;0.33;100.00
79481;BME280;68944;48.262;14.208;2023-11-18T04:28:57;99120.78;;;0.39;100.00
79481;BME280;68944;48.262;14.208;2023-11-18T04:31:23;99125.31;;;0.47;100.00
79481;BME280;68944;48.262;14.208;2023-11-18T04:33:48;99122.16;;;0.43;100.00
79481;BME280;68944;48.262;14.208;2023-11-18T04:36:14;99128.75;;;0.47;100.00
79481;BME280;68944;48.262;14.208;2023-11-18T04:38:42;99136.00;;;0.33;100.00
79481;BME280;68944;48.262;14.208;2023-11-18T04:41:07;99139.69;;;0.31;100.00
79481;BME280;68944;48.262;14.208;2023-11-18T04:43:33;99135.16;;;0.33;100.00
79481;BME280;68944;48.262;14.208;2023-11-18T04:45:59;99122.97;;;0.33;100.00
79481;BME280;68944;48.262;14.208;2023-11-18T04:48:24;99135.16;;;0.33;100.00
79481;BME280;68944;48.262;14.208;2023-11-18T04:50:50;99128.16;;;0.33;100.00
79481;BME280;68944;48.262;14.208;2023-11-18T04:53:16;99127.91;;;0.37;100.00
79481;BME280;68944;48.262;14.208;2023-11-18T04:55:41;99140.13;;;0.36;100.00
79481;BME280;68944;48.262;14.208;2023-11-18T04:58:07;99144.78;;;0.32;100.00
79481;BME280;68944;48.262;14.208;2023-11-18T05:00:36;99149.16;;;0.32;100.00
79481;BME280;68944;48.262;14.208;2023-11-18T05:03:04;99151.50;;;0.35;100.00
79481;BME280;68944;48.262;14.208;2023-11-18T05:05:30;99151.50;;;0.35;100.00
79481;BME280;68944;48.262;14.208;2023-11-18T05:07:55;99158.22;;;0.28;100.00
79481;BME280;68944;48.262;14.208;2023-11-18T05:10:21;99159.94;;;0.17;100.00
79481;BME280;68944;48.262;14.208;2023-11-18T05:12:47;99156.09;;;0.12;100.00
79481;BME280;68944;48.262;14.208;2023-11-18T05:15:21;99157.72;;;0.13;100.00
79481;BME280;68944;48.262;14.208;2023-11-18T05:17:53;99158.44;;;0.15;100.00
79481;BME280;68944;48.262;14.208;2023-11-18T05:20:19;99169.28;;;0.20;100.00
79481;BME280;68944;48.262;14.208;2023-11-18T05:22:45;99158.81;;;0.10;100.00
79481;BME280;68944;48.262;14.208;2023-11-18T05:25:11;99162.13;;;0.12;100.00
79481;BME280;68944;48.262;14.208;2023-11-18T05:27:37;99168.41;;;0.09;100.00
79481;BME280;68944;48.262;14.208;2023-11-18T05:30:03;99169.38;;;0.08;100.00
79481;BME280;68944;48.262;14.208;2023-11-18T05:32:30;99165.94;;;0.08;100.00
79481;BME280;68944;48.262;14.208;2023-11-18T05:34:56;99160.19;;;0.14;100.00
79481;BME280;68944;48.262;14.208;2023-11-18T05:37:23;99162.69;;;0.16;100.00
79481;BME280;68944;48.262;14.208;2023-11-18T05:39:49;99163.25;;;0.19;100.00
79481;BME280;68944;48.262;14.208;2023-11-18T05:42:26;99169.72;;;0.25;100.00
79481;BME280;68944;48.262;14.208;2023-11-18T05:44:52;99169.19;;;0.31;100.00
79481;BME280;68944;48.262;14.208;2023-11-18T05:47:27;99169.50;;;0.38;100.00
79481;BME280;68944;48.262;14.208;2023-11-18T05:49:53;99171.38;;;0.26;100.00
79481;BME280;68944;48.262;14.208;2023-11-18T05:52:20;99173.41;;;0.22;100.00
79481;BME280;68944;48.262;14.208;2023-11-18T05:54:46;99167.44;;;0.42;100.00
79481;BME280;68944;48.262;14.208;2023-11-18T05:57:14;99173.41;;;0.22;100.00
79481;BME280;68944;48.262;14.208;2023-11-18T05:59:40;99177.88;;;0.10;100.00
79481;BME280;68944;48.262;14.208;2023-11-18T06:02:05;99178.88;;;0.19;100.00
79481;BME280;68944;48.262;14.208;2023-11-18T06:04:31;99182.94;;;0.02;100.00
79481;BME280;68944;48.262;14.208;2023-11-18T06:06:56;99185.06;;;0.18;100.00
79481;BME280;68944;48.262;14.208;2023-11-18T06:09:22;99191.56;;;0.03;100.00
79481;BME280;68944;48.262;14.208;2023-11-18T06:11:51;99193.78;;;0.07;100.00
79481;BME280;68944;48.262;14.208;2023-11-18T06:14:19;99195.88;;;0.14;100.00
79481;BME280;68944;48.262;14.208;2023-11-18T06:16:44;99200.47;;;0.00;100.00
79481;BME280;68944;48.262;14.208;2023-11-18T06:19:10;99200.81;;;-0.15;100.00
79481;BME280;68944;48.262;14.208;2023-11-18T06:21:36;99207.41;;;-0.10;100.00
79481;BME280;68944;48.262;14.208;2023-11-18T06:24:02;99213.44;;;-0.10;100.00
79481;BME280;68944;48.262;14.208;2023-11-18T06:26:29;99208.09;;;-0.08;100.00
79481;BME280;68944;48.262;14.208;2023-11-18T06:28:55;99211.22;;;-0.15;100.00
79481;BME280;68944;48.262;14.208;2023-11-18T06:31:21;99215.03;;;-0.19;100.00
79481;BME280;68944;48.262;14.208;2023-11-18T06:33:49;99223.97;;;-0.12;100.00
79481;BME280;68944;48.262;14.208;2023-11-18T06:38:42;99240.31;;;-0.09;100.00
79481;BME280;68944;48.262;14.208;2023-11-18T06:41:09;99233.38;;;0.01;100.00
79481;BME280;68944;48.262;14.208;2023-11-18T06:43:41;99235.06;;;0.02;100.00
79481;BME280;68944;48.262;14.208;2023-11-18T06:46:19;99240.59;;;0.19;100.00
79481;BME280;68944;48.262;14.208;2023-11-18T06:48:49;99238.72;;;-0.01;100.00
79481;BME280;68944;48.262;14.208;2023-11-18T06:51:15;99244.50;;;-0.18;100.00
79481;BME280;68944;48.262;14.208;2023-11-18T06:53:41;99243.38;;;-0.26;100.00
79481;BME280;68944;48.262;14.208;2023-11-18T06:56:07;99245.84;;;-0.24;100.00
79481;BME280;68944;48.262;14.208;2023-11-18T06:58:33;99240.31;;;-0.31;100.00
79481;BME280;68944;48.262;14.208;2023-11-18T07:00:59;99243.09;;;-0.22;100.00
79481;BME280;68944;48.262;14.208;2023-11-18T07:03:24;99242.53;;;-0.26;100.00
79481;BME280;68944;48.262;14.208;2023-11-18T07:05:50;99248.53;;;-0.14;100.00
79481;BME280;68944;48.262;14.208;2023-11-18T07:08:15;99248.75;;;-0.17;100.00
79481;BME280;68944;48.262;14.208;2023-11-18T07:10:41;99248.44;;;-0.24;100.00
79481;BME280;68944;48.262;14.208;2023-11-18T07:13:06;99246.78;;;-0.25;100.00
79481;BME280;68944;48.262;14.208;2023-11-18T07:15:34;99250.16;;;-0.13;100.00
79481;BME280;68944;48.262;14.208;2023-11-18T07:18:01;99247.16;;;-0.08;100.00
79481;BME280;68944;48.262;14.208;2023-11-18T07:20:27;99256.44;;;-0.16;100.00
79481;BME280;68944;48.262;14.208;2023-11-18T07:22:52;99253.84;;;-0.16;100.00
79481;BME280;68944;48.262;14.208;2023-11-18T07:25:18;99258.28;;;-0.06;100.00
79481;BME280;68944;48.262;14.208;2023-11-18T07:27:44;99257.53;;;0.03;100.00
79481;BME280;68944;48.262;14.208;2023-11-18T07:30:09;99255.06;;;0.23;100.00
79481;BME280;68944;48.262;14.208;2023-11-18T07:32:36;99253.97;;;0.57;100.00
79481;BME280;68944;48.262;14.208;2023-11-18T07:35:02;99259.88;;;0.59;100.00
79481;BME280;68944;48.262;14.208;2023-11-18T07:37:28;99257.00;;;0.62;100.00
79481;BME280;68944;48.262;14.208;2023-11-18T07:39:58;99269.63;;;0.57;100.00
79481;BME280;68944;48.262;14.208;2023-11-18T07:42:26;99270.47;;;0.67;100.00
79481;BME280;68944;48.262;14.208;2023-11-18T07:44:52;99262.78;;;0.66;100.00
79481;BME280;68944;48.262;14.208;2023-11-18T07:47:17;99265.81;;;0.71;100.00
79481;BME280;68944;48.262;14.208;2023-11-18T07:49:44;99264.50;;;0.87;100.00
79481;BME280;68944;48.262;14.208;2023-11-18T07:52:11;99268.78;;;0.88;100.00
79481;BME280;68944;48.262;14.208;2023-11-18T07:54:37;99268.22;;;0.94;100.00
79481;BME280;68944;48.262;14.208;2023-11-18T07:57:03;99256.84;;;1.05;100.00
79481;BME280;68944;48.262;14.208;2023-11-18T07:59:31;99258.09;;;1.11;100.00
79481;BME280;68944;48.262;14.208;2023-11-18T08:01:57;99256.59;;;1.08;100.00
79481;BME280;68944;48.262;14.208;2023-11-18T08:04:23;99259.63;;;1.13;100.00
79481;BME280;68944;48.262;14.208;2023-11-18T08:06:49;99270.34;;;1.20;100.00
79481;BME280;68944;48.262;14.208;2023-11-18T08:09:15;99271.44;;;1.28;100.00
79481;BME280;68944;48.262;14.208;2023-11-18T08:11:48;99276.13;;;1.24;100.00
79481;BME280;68944;48.262;14.208;2023-11-18T08:14:14;99281.38;;;1.34;100.00
79481;BME280;68944;48.262;14.208;2023-11-18T08:16:40;99279.97;;;1.40;100.00
79481;BME280;68944;48.262;14.208;2023-11-18T08:19:05;99278.47;;;1.37;100.00
79481;BME280;68944;48.262;14.208;2023-11-18T08:21:34;99281.63;;;1.31;100.00
79481;BME280;68944;48.262;14.208;2023-11-18T08:24:00;99296.59;;;1.29;100.00
79481;BME280;68944;48.262;14.208;2023-11-18T08:26:26;99287.81;;;1.30;100.00
79481;BME280;68944;48.262;14.208;2023-11-18T08:28:52;99295.50;;;1.31;100.00
79481;BME280;68944;48.262;14.208;2023-11-18T08:31:17;99290.72;;;1.36;100.00
79481;BME280;68944;48.262;14.208;2023-11-18T08:33:43;99291.25;;;1.40;100.00
79481;BME280;68944;48.262;14.208;2023-11-18T08:36:11;99300.34;;;1.46;100.00
79481;BME280;68944;48.262;14.208;2023-11-18T08:38:38;99301.16;;;1.46;100.00
79481;BME280;68944;48.262;14.208;2023-11-18T08:41:04;99299.38;;;1.57;100.00
79481;BME280;68944;48.262;14.208;2023-11-18T08:43:31;99297.88;;;1.54;100.00
79481;BME280;68944;48.262;14.208;2023-11-18T08:45:56;99306.41;;;1.56;100.00
79481;BME280;68944;48.262;14.208;2023-11-18T08:48:22;99302.53;;;1.61;100.00
79481;BME280;68944;48.262;14.208;2023-11-18T08:50:48;99305.84;;;1.73;100.00
79481;BME280;68944;48.262;14.208;2023-11-18T08:53:14;99297.72;;;1.86;100.00
79481;BME280;68944;48.262;14.208;2023-11-18T08:55:43;99301.97;;;2.07;100.00
79481;BME280;68944;48.262;14.208;2023-11-18T08:58:22;99315.88;;;2.27;100.00
79481;BME280;68944;48.262;14.208;2023-11-18T09:00:53;99313.84;;;2.59;100.00
79481;BME280;68944;48.262;14.208;2023-11-18T09:03:23;99311.47;;;2.66;100.00
79481;BME280;68944;48.262;14.208;2023-11-18T09:06:15;99315.31;;;2.71;100.00
79481;BME280;68944;48.262;14.208;2023-11-18T09:08:45;99312.84;;;2.70;100.00
79481;BME280;68944;48.262;14.208;2023-11-18T09:11:14;99322.69;;;2.48;100.00
79481;BME280;68944;48.262;14.208;2023-11-18T09:13:41;99327.09;;;2.57;100.00
79481;BME280;68944;48.262;14.208;2023-11-18T09:16:08;99327.47;;;2.63;100.00
79481;BME280;68944;48.262;14.208;2023-11-18T09:18:37;99332.81;;;2.71;100.00
79481;BME280;68944;48.262;14.208;2023-11-18T09:21:06;99329.03;;;2.83;100.00
79481;BME280;68944;48.262;14.208;2023-11-18T09:23:33;99326.16;;;3.15;100.00
79481;BME280;68944;48.262;14.208;2023-11-18T09:26:03;99326.84;;;3.17;100.00
79481;BME280;68944;48.262;14.208;2023-11-18T09:28:34;99326.03;;;3.06;100.00
79481;BME280;68944;48.262;14.208;2023-11-18T09:31:01;99321.19;;;3.12;100.00
79481;BME280;68944;48.262;14.208;2023-11-18T09:33:30;99321.25;;;3.30;100.00
79481;BME280;68944;48.262;14.208;2023-11-18T09:38:28;99333.09;;;3.06;100.00
79481;BME280;68944;48.262;14.208;2023-11-18T09:40:54;99325.31;;;3.14;100.00
79481;BME280;68944;48.262;14.208;2023-11-18T09:43:20;99314.66;;;2.98;100.00
79481;BME280;68944;48.262;14.208;2023-11-18T09:45:55;99310.34;;;3.06;100.00
79481;BME280;68944;48.262;14.208;2023-11-18T09:48:22;99306.28;;;3.22;100.00
79481;BME280;68944;48.262;14.208;2023-11-18T09:50:55;99297.72;;;3.20;100.00
79481;BME280;68944;48.262;14.208;2023-11-18T09:53:23;99291.38;;;3.23;100.00
79481;BME280;68944;48.262;14.208;2023-11-18T09:56:18;99284.81;;;3.55;100.00
79481;BME280;68944;48.262;14.208;2023-11-18T09:59:03;99273.03;;;3.96;100.00
79481;BME280;68944;48.262;14.208;2023-11-18T10:01:35;99279.16;;;4.05;100.00
79481;BME280;68944;48.262;14.208;2023-11-18T10:04:05;99273.16;;;3.94;100.00
79481;BME280;68944;48.262;14.208;2023-11-18T10:06:35;99273.50;;;4.44;100.00
79481;BME280;68944;48.262;14.208;2023-11-18T10:09:02;99263.34;;;4.50;100.00
79481;BME280;68944;48.262;14.208;2023-11-18T10:11:47;99265.75;;;4.08;100.00
79481;BME280;68944;48.262;14.208;2023-11-18T10:14:14;99271.13;;;4.33;100.00
79481;BME280;68944;48.262;14.208;2023-11-18T10:16:44;99269.31;;;4.33;100.00
79481;BME280;68944;48.262;14.208;2023-11-18T10:19:13;99271.84;;;4.43;100.00
79481;BME280;68944;48.262;14.208;2023-11-18T10:21:40;99277.81;;;4.54;100.00
79481;BME280;68944;48.262;14.208;2023-11-18T10:24:07;99272.88;;;4.51;100.00
79481;BME280;68944;48.262;14.208;2023-11-18T10:26:53;99269.88;;;4.46;100.00
79481;BME280;68944;48.262;14.208;2023-11-18T10:29:19;99279.47;;;4.28;100.00
79481;BME280;68944;48.262;14.208;2023-11-18T10:31:45;99268.97;;;4.02;100.00
79481;BME280;68944;48.262;14.208;2023-11-18T10:34:14;99275.69;;;4.04;100.00
79481;BME280;68944;48.262;14.208;2023-11-18T10:37:00;99272.25;;;4.04;100.00
79481;BME280;68944;48.262;14.208;2023-11-18T10:39:29;99272.88;;;3.97;100.00
79481;BME280;68944;48.262;14.208;2023-11-18T10:42:01;99281.03;;;3.94;100.00
79481;BME280;68944;48.262;14.208;2023-11-18T10:44:27;99279.03;;;3.88;100.00
79481;BME280;68944;48.262;14.208;2023-11-18T10:46:55;99276.25;;;3.71;100.00
79481;BME280;68944;48.262;14.208;2023-11-18T10:49:26;99272.00;;;3.70;100.00
79481;BME280;68944;48.262;14.208;2023-11-18T10:51:52;99274.06;;;3.85;100.00
79481;BME280;68944;48.262;14.208;2023-11-18T10:54:18;99273.31;;;3.93;100.00
79481;BME280;68944;48.262;14.208;2023-11-18T10:56:48;99269.75;;;3.75;100.00
79481;BME280;68944;48.262;14.208;2023-11-18T10:59:14;99285.34;;;3.77;100.00
79481;BME280;68944;48.262;14.208;2023-11-18T11:01:44;99287.78;;;3.79;100.00
79481;BME280;68944;48.262;14.208;2023-11-18T11:04:13;99289.22;;;3.91;100.00
79481;BME280;68944;48.262;14.208;2023-11-18T11:06:46;99285.59;;;3.92;100.00
79481;BME280;68944;48.262;14.208;2023-11-18T11:09:21;99275.53;;;4.06;100.00
79481;BME280;68944;48.262;14.208;2023-11-18T11:11:54;99272.66;;;4.17;100.00
79481;BME280;68944;48.262;14.208;2023-11-18T11:14:22;99270.41;;;4.23;100.00
79481;BME280;68944;48.262;14.208;2023-11-18T11:16:52;99268.16;;;4.28;100.00
79481;BME280;68944;48.262;14.208;2023-11-18T11:19:26;99266.63;;;4.17;100.00
79481;BME280;68944;48.262;14.208;2023-11-18T11:22:05;99268.25;;;4.18;100.00
79481;BME280;68944;48.262;14.208;2023-11-18T11:27:13;99279.16;;;4.58;100.00
79481;BME280;68944;48.262;14.208;2023-11-18T11:29:59;99264.59;;;4.37;100.00
79481;BME280;68944;48.262;14.208;2023-11-18T11:32:39;99275.53;;;4.59;100.00
79481;BME280;68944;48.262;14.208;2023-11-18T11:35:18;99277.56;;;4.39;100.00
79481;BME280;68944;48.262;14.208;2023-11-18T11:37:47;99277.75;;;4.46;100.00
79481;BME280;68944;48.262;14.208;2023-11-18T11:40:14;99273.16;;;4.48;100.00
79481;BME280;68944;48.262;14.208;2023-11-18T11:42:48;99269.31;;;4.33;100.00
79481;BME280;68944;48.262;14.208;2023-11-18T11:45:22;99269.59;;;4.49;100.00
79481;BME280;68944;48.262;14.208;2023-11-18T11:47:51;99269.47;;;4.59;100.00
79481;BME280;68944;48.262;14.208;2023-11-18T11:50:25;99267.88;;;4.39;100.00
79481;BME280;68944;48.262;14.208;2023-11-18T11:53:03;99262.34;;;4.42;100.00
79481;BME280;68944;48.262;14.208;2023-11-18T11:55:33;99269.47;;;4.32;100.00
79481;BME280;68944;48.262;14.208;2023-11-18T11:58:02;99270.81;;;4.36;100.00
79481;BME280;68944;48.262;14.208;2023-11-18T12:00:27;99268.56;;;4.41;100.00
79481;BME280;68944;48.262;14.208;2023-11-18T12:03:03;99267.78;;;4.49;100.00
79481;BME280;68944;48.262;14.208;2023-11-18T12:05:36;99269.13;;;4.62;100.00
79481;BME280;68944;48.262;14.208;2023-11-18T12:08:09;99271.28;;;4.58;100.00
79481;BME280;68944;48.262;14.208;2023-11-18T12:10:38;99267.13;;;4.47;100.00
79481;BME280;68944;48.262;14.208;2023-11-18T12:13:09;99266.38;;;4.63;100.00
79481;BME280;68944;48.262;14.208;2023-11-18T12:15:52;99263.75;;;4.63;100.00
79481;BME280;68944;48.262;14.208;2023-11-18T12:18:29;99258.63;;;4.53;100.00
79481;BME280;68944;48.262;14.208;2023-11-18T12:20:57;99260.47;;;4.61;100.00
79481;BME280;68944;48.262;14.208;2023-11-18T12:23:27;99258.97;;;4.59;100.00
79481;BME280;68944;48.262;14.208;2023-11-18T12:25:54;99264.25;;;4.67;100.00
79481;BME280;68944;48.262;14.208;2023-11-18T12:28:24;99255.47;;;4.50;100.00
79481;BME280;68944;48.262;14.208;2023-11-18T12:30:55;99246.31;;;4.54;100.00
79481;BME280;68944;48.262;14.208;2023-11-18T12:42:05;99223.09;;;4.76;100.00
79481;BME280;68944;48.262;14.208;2023-11-18T12:44:38;99224.72;;;4.69;100.00
79481;BME280;68944;48.262;14.208;2023-11-18T12:47:14;99228.28;;;4.59;100.00
79481;BME280;68944;48.262;14.208;2023-11-18T12:49:47;99226.38;;;4.78;100.00
79481;BME280;68944;48.262;14.208;2023-11-18T12:52:20;99240.63;;;4.67;100.00
79481;BME280;68944;48.262;14.208;2023-11-18T12:54:49;99229.84;;;4.87;100.00
79481;BME280;68944;48.262;14.208;2023-11-18T12:57:27;99227.28;;;5.04;100.00
79481;BME280;68944;48.262;14.208;2023-11-18T12:59:56;99227.78;;;5.24;100.00
79481;BME280;68944;48.262;14.208;2023-11-18T13:02:22;99224.66;;;5.04;100.00
79481;BME280;68944;48.262;14.208;2023-11-18T13:04:51;99227.09;;;4.88;100.00
79481;BME280;68944;48.262;14.208;2023-11-18T13:07:19;99225.78;;;5.01;100.00
79481;BME280;68944;48.262;14.208;2023-11-18T13:09:48;99221.84;;;4.97;100.00
79481;BME280;68944;48.262;14.208;2023-11-18T13:12:14;99199.72;;;5.16;100.00